Navasota, Texas
Current Conditions -  °F | °C
As of 11:55 AM on Friday 24 Oct 2014 (Local Time) from K11R Reporting Station
Clear Clear  
Wind Chill: 75°   Ceiling: Unl
Heat Index: 75°   Visibility: 10mi
Dew Point: 54°   Wind: 3mph
Humidity: 48%   Direction: 10°N
Pressure: 30.2"   Gusts: NA
Location:  30.39°N, 96.09°W
Report Text: K11R 241655Z AUTO 01003KT 10SM CLR 24/12 A3020 RMK AO2 T02370122
Loading
Personal Weather Stations






























Interactive Weather Map
Tropical Storm Tracking
New forecast layout! Learn more

10-Day Weather Forecast

Advertisements
Track Severe Weather on mobile